Time;durP1;ratioP1;P1;durP2;ratioP2;P2;SDS_P1;SDS_P2;PMS_P1;PMS_P2;Temp;Humidity;BMP_temperature;BMP_pressure;BME280_temperature;BME280_humidity;BME280_pressure;Samples;Min_cycle;Max_cycle;Signal;HPM_P1;HPM_P2
2023/06/07 00:02:06;;;;;;;22.42;8.52;;;;;;;;;;5035151;28;92399;-73
2023/06/07 00:04:33;;;;;;;16.23;6.60;;;;;;;;;;5034608;28;94709;-74
2023/06/07 00:07:03;;;;;;;17.25;7.20;;;;;;;;;;5034706;27;94393;-74
2023/06/07 00:09:30;;;;;;;18.98;7.93;;;;;;;;;;5034957;28;92412;-74
2023/06/07 00:11:58;;;;;;;17.63;7.07;;;;;;;;;;5034724;28;94236;-74
2023/06/07 00:14:26;;;;;;;14.95;7.82;;;;;;;;;;5033419;27;95155;-74
2023/06/07 00:16:54;;;;;;;18.17;8.23;;;;;;;;;;5027567;27;91670;-74
2023/06/07 00:19:24;;;;;;;17.73;7.07;;;;;;;;;;5017754;28;93823;-73
2023/06/07 00:21:51;;;;;;;14.27;7.38;;;;;;;;;;5014690;28;92513;-74
2023/06/07 00:24:18;;;;;;;16.45;8.02;;;;;;;;;;5012636;28;94812;-74
2023/06/07 00:26:45;;;;;;;15.70;7.38;;;;;;;;;;5014351;28;94246;-74
2023/06/07 00:29:13;;;;;;;24.65;8.13;;;;;;;;;;5013481;28;92459;-74
2023/06/07 00:31:40;;;;;;;21.23;7.90;;;;;;;;;;5013196;28;94741;-74
2023/06/07 00:34:06;;;;;;;20.35;8.18;;;;;;;;;;5014317;28;94898;-73
2023/06/07 00:36:33;;;;;;;18.50;7.25;;;;;;;;;;5014049;28;92541;-74
2023/06/07 00:39:00;;;;;;;16.83;7.05;;;;;;;;;;5014709;28;93026;-74
2023/06/07 00:41:26;;;;;;;16.73;7.20;;;;;;;;;;5027813;28;93539;-74
2023/06/07 00:43:52;;;;;;;19.48;7.97;;;;;;;;;;5034304;27;92838;-74
2023/06/07 00:46:19;;;;;;;18.50;8.32;;;;;;;;;;5034217;28;94526;-73
2023/06/07 00:48:47;;;;;;;20.92;8.15;;;;;;;;;;5032916;27;94829;-74
2023/06/07 00:51:13;;;;;;;15.40;7.60;;;;;;;;;;5034013;27;96681;-73
2023/06/07 00:53:41;;;;;;;31.25;8.43;;;;;;;;;;5034216;28;94476;-74
2023/06/07 00:56:10;;;;;;;26.58;8.35;;;;;;;;;;5034205;28;92562;-73
2023/06/07 00:58:40;;;;;;;22.80;8.07;;;;;;;;;;5034009;27;94771;-73
2023/06/07 01:01:08;;;;;;;25.20;7.97;;;;;;;;;;5034136;27;95149;-74
2023/06/07 01:03:34;;;;;;;15.15;7.25;;;;;;;;;;5037362;28;92428;-74
2023/06/07 01:06:05;;;;;;;18.73;7.90;;;;;;;;;;5034330;27;93851;-74
2023/06/07 01:08:31;;;;;;;;;;;;;;;;;;5034613;28;92376;-74
2023/06/07 01:10:59;;;;;;;22.48;7.90;;;;;;;;;;5034584;28;123840;-74
2023/06/07 01:13:26;;;;;;;26.23;8.20;;;;;;;;;;5031225;27;95588;-74
2023/06/07 01:15:52;;;;;;;16.20;7.50;;;;;;;;;;5033934;27;92426;-73
2023/06/07 01:18:19;;;;;;;16.83;7.47;;;;;;;;;;5015769;28;94980;-73
2023/06/07 01:20:56;;;;;;;17.63;7.55;;;;;;;;;;5033776;27;94422;-73
2023/06/07 01:23:28;;;;;;;20.80;7.45;;;;;;;;;;5032736;27;92431;-74
2023/06/07 01:26:01;;;;;;;16.27;7.53;;;;;;;;;;5036356;27;94161;-73
2023/06/07 01:28:33;;;;;;;17.83;7.63;;;;;;;;;;5037306;28;92390;-73
2023/06/07 01:31:01;;;;;;;17.05;6.82;;;;;;;;;;5037886;27;94221;-74
2023/06/07 01:33:28;;;;;;;15.85;6.85;;;;;;;;;;5037461;28;94439;-73
2023/06/07 01:35:55;;;;;;;16.40;6.93;;;;;;;;;;5037183;28;92420;-74
2023/06/07 01:38:22;;;;;;;14.93;7.88;;;;;;;;;;5035449;27;94772;-73
2023/06/07 01:40:49;;;;;;;14.73;6.93;;;;;;;;;;5037122;27;93389;-73
2023/06/07 01:43:16;;;;;;;27.23;8.15;;;;;;;;;;5019229;28;92476;-73
2023/06/07 01:45:44;;;;;;;18.88;7.28;;;;;;;;;;5039774;28;94264;-74
2023/06/07 01:48:11;;;;;;;25.38;7.63;;;;;;;;;;5036955;27;92443;-74
2023/06/07 01:50:37;;;;;;;19.90;6.90;;;;;;;;;;5036630;27;94251;-74
2023/06/07 01:53:04;;;;;;;17.33;6.78;;;;;;;;;;5036545;28;94850;-74
2023/06/07 01:55:32;;;;;;;20.52;6.53;;;;;;;;;;5037673;28;91618;-74
2023/06/07 01:58:17;;;;;;;16.75;7.10;;;;;;;;;;5036822;28;93623;-74
2023/06/07 02:00:58;;;;;;;20.38;6.65;;;;;;;;;;5036542;27;94696;-74
2023/06/07 02:03:25;;;;;;;24.30;6.90;;;;;;;;;;5035212;28;94827;-73
2023/06/07 02:05:54;;;;;;;25.33;7.43;;;;;;;;;;5036516;27;97306;-74
2023/06/07 02:08:34;;;;;;;14.90;6.38;;;;;;;;;;5039790;28;94203;-74
2023/06/07 02:11:01;;;;;;;16.40;6.13;;;;;;;;;;5018794;28;94491;-73
2023/06/07 02:13:31;;;;;;;17.73;6.82;;;;;;;;;;5018551;28;94589;-73
2023/06/07 02:15:58;;;;;;;16.67;7.72;;;;;;;;;;5036328;27;92448;-74
2023/06/07 02:18:25;;;;;;;16.27;6.53;;;;;;;;;;5036520;28;93669;-73
2023/06/07 02:20:51;;;;;;;12.30;5.93;;;;;;;;;;5037037;27;94306;-73
2023/06/07 02:23:18;;;;;;;23.23;6.30;;;;;;;;;;5036232;27;92451;-73
2023/06/07 02:25:44;;;;;;;14.25;5.97;;;;;;;;;;5036001;27;94306;-73
2023/06/07 02:28:11;;;;;;;29.38;6.82;;;;;;;;;;5034430;27;99813;-73
2023/06/07 02:30:37;;;;;;;17.33;6.90;;;;;;;;;;5039421;27;92443;-74
2023/06/07 02:33:05;;;;;;;21.92;5.82;;;;;;;;;;5035987;27;94972;-74
2023/06/07 02:35:31;;;;;;;23.60;6.65;;;;;;;;;;5036179;28;92852;-73
2023/06/07 02:37:58;;;;;;;14.88;6.07;;;;;;;;;;5034937;27;94210;-73
2023/06/07 02:40:24;;;;;;;18.90;6.15;;;;;;;;;;5036220;28;94810;-73
2023/06/07 02:42:51;;;;;;;23.92;6.70;;;;;;;;;;5036140;27;92395;-73
2023/06/07 02:45:17;;;;;;;19.27;6.50;;;;;;;;;;5036154;28;94586;-73
2023/06/07 02:47:44;;;;;;;27.27;7.20;;;;;;;;;;5035684;28;94891;-73
2023/06/07 02:50:11;;;;;;;16.60;7.05;;;;;;;;;;5036284;28;92708;-73
2023/06/07 02:52:37;;;;;;;18.63;6.80;;;;;;;;;;5019510;28;94864;-73
2023/06/07 02:55:04;;;;;;;19.25;6.57;;;;;;;;;;5035896;28;92411;-74
2023/06/07 02:57:30;;;;;;;22.20;6.63;;;;;;;;;;5036025;28;94466;-73
2023/06/07 02:59:57;;;;;;;17.70;6.20;;;;;;;;;;5035789;28;94558;-74
2023/06/07 03:02:23;;;;;;;21.92;6.53;;;;;;;;;;5035663;27;92422;-73
2023/06/07 03:04:50;;;;;;;18.20;6.65;;;;;;;;;;5035998;27;94170;-73
2023/06/07 03:07:20;;;;;;;18.48;7.53;;;;;;;;;;5035407;27;94794;-73
2023/06/07 03:09:47;;;;;;;22.55;6.95;;;;;;;;;;5036242;28;91724;-74
2023/06/07 03:12:13;;;;;;;18.42;7.32;;;;;;;;;;5035504;28;93240;-74
2023/06/07 03:14:41;;;;;;;25.55;7.07;;;;;;;;;;5038760;28;94515;-73
2023/06/07 03:17:11;;;;;;;15.70;6.97;;;;;;;;;;5034224;28;94789;-73
2023/06/07 03:19:39;;;;;;;16.23;7.57;;;;;;;;;;5035218;27;94356;-73
2023/06/07 03:22:06;;;;;;;23.02;7.72;;;;;;;;;;5035420;27;92599;-74
2023/06/07 03:24:34;;;;;;;18.30;7.18;;;;;;;;;;5033509;27;94681;-73
2023/06/07 03:27:01;;;;;;;23.70;7.32;;;;;;;;;;5035068;28;94563;-73
2023/06/07 03:29:27;;;;;;;24.75;7.82;;;;;;;;;;5017886;28;92414;-73
2023/06/07 03:31:54;;;;;;;18.70;6.60;;;;;;;;;;5035140;28;94630;-73
2023/06/07 03:34:21;;;;;;;18.88;7.13;;;;;;;;;;5035616;27;93849;-72
2023/06/07 03:36:50;;;;;;;22.20;7.35;;;;;;;;;;5037963;28;92472;-75
2023/06/07 03:39:16;;;;;;;18.63;7.25;;;;;;;;;;5034968;28;94479;-73
2023/06/07 03:41:43;;;;;;;17.25;7.63;;;;;;;;;;5033322;27;94839;-73
2023/06/07 03:44:11;;;;;;;21.75;7.28;;;;;;;;;;5034829;27;97490;-72
2023/06/07 03:46:38;;;;;;;18.45;6.82;;;;;;;;;;5034869;27;96816;-73
2023/06/07 03:49:05;;;;;;;18.48;7.80;;;;;;;;;;5016644;28;92535;-73
2023/06/07 03:51:32;;;;;;;27.55;7.25;;;;;;;;;;5034590;27;94486;-73
2023/06/07 03:53:59;;;;;;;18.75;8.00;;;;;;;;;;5034536;28;94902;-73
2023/06/07 03:56:25;;;;;;;14.75;7.07;;;;;;;;;;5037667;27;92500;-73
2023/06/07 03:58:53;;;;;;;16.77;6.68;;;;;;;;;;5035044;28;93929;-73
2023/06/07 04:01:25;;;;;;;20.70;6.72;;;;;;;;;;5016872;28;92451;-73
2023/06/07 04:03:51;;;;;;;22.38;7.00;;;;;;;;;;5034556;28;95086;-73
2023/06/07 04:06:24;;;;;;;26.45;7.38;;;;;;;;;;5032563;28;96882;-73
2023/06/07 04:08:56;;;;;;;21.40;6.55;;;;;;;;;;5034791;28;92421;-73
2023/06/07 04:11:23;;;;;;;19.30;6.63;;;;;;;;;;5034649;28;95903;-73
2023/06/07 04:13:49;;;;;;;23.83;7.00;;;;;;;;;;5016518;28;94308;-76
2023/06/07 04:16:16;;;;;;;23.23;6.63;;;;;;;;;;5034567;27;92482;-73
2023/06/07 04:18:42;;;;;;;21.00;6.68;;;;;;;;;;5037108;27;94439;-73
2023/06/07 04:21:10;;;;;;;17.17;6.38;;;;;;;;;;5034241;27;93378;-74
2023/06/07 04:23:36;;;;;;;24.70;6.75;;;;;;;;;;5034857;28;94304;-73
2023/06/07 04:26:05;;;;;;;26.55;7.45;;;;;;;;;;5034035;28;94536;-73
2023/06/07 04:28:32;;;;;;;23.92;7.63;;;;;;;;;;5033952;27;92521;-73
2023/06/07 04:30:58;;;;;;;25.70;7.05;;;;;;;;;;5032704;28;94971;-73
2023/06/07 04:33:27;;;;;;;19.98;6.35;;;;;;;;;;5034164;28;93595;-73
2023/06/07 04:35:57;;;;;;;19.40;6.80;;;;;;;;;;5033902;28;92425;-73
2023/06/07 04:38:25;;;;;;;25.00;7.22;;;;;;;;;;5034223;28;94259;-73
2023/06/07 04:40:52;;;;;;;19.88;6.65;;;;;;;;;;5036975;28;94460;-74
2023/06/07 04:43:19;;;;;;;20.77;6.47;;;;;;;;;;5016292;28;94690;-73
2023/06/07 04:45:55;;;;;;;25.48;6.75;;;;;;;;;;5015836;28;94817;-73
2023/06/07 04:48:22;;;;;;;22.15;7.05;;;;;;;;;;5034619;28;91740;-73
2023/06/07 04:50:50;;;;;;;19.48;7.55;;;;;;;;;;5034168;28;94891;-73
2023/06/07 04:53:19;;;;;;;18.08;6.78;;;;;;;;;;5033805;28;97402;-73
2023/06/07 04:55:47;;;;;;;28.83;7.32;;;;;;;;;;5032380;27;94790;-73
2023/06/07 04:58:18;;;;;;;23.27;6.93;;;;;;;;;;5033456;27;97177;-73
2023/06/07 05:00:45;;;;;;;22.75;7.70;;;;;;;;;;5034031;27;94984;-73
2023/06/07 05:03:21;;;;;;;17.08;7.18;;;;;;;;;;5040578;27;92392;-73
2023/06/07 05:05:48;;;;;;;30.30;6.90;;;;;;;;;;5037223;28;94567;-73
2023/06/07 05:08:15;;;;;;;21.60;7.32;;;;;;;;;;5036215;28;93504;-73
2023/06/07 05:10:41;;;;;;;22.90;7.50;;;;;;;;;;5037661;28;94612;-73
2023/06/07 05:13:08;;;;;;;17.17;7.13;;;;;;;;;;5037770;27;93940;-72
2023/06/07 05:15:34;;;;;;;21.65;6.82;;;;;;;;;;5037218;27;92429;-73
2023/06/07 05:18:02;;;;;;;20.98;7.10;;;;;;;;;;5019067;28;95438;-72
2023/06/07 05:20:31;;;;;;;24.33;7.32;;;;;;;;;;5017565;28;96852;-72
2023/06/07 05:22:58;;;;;;;23.27;7.18;;;;;;;;;;5019206;28;92524;-73
2023/06/07 05:25:24;;;;;;;20.02;7.18;;;;;;;;;;5021662;28;94272;-73
2023/06/07 05:27:52;;;;;;;20.95;7.47;;;;;;;;;;5037209;27;92408;-73
2023/06/07 05:30:37;;;;;;;19.77;7.13;;;;;;;;;;5037236;28;94425;-73
2023/06/07 05:33:04;;;;;;;29.90;7.35;;;;;;;;;;5036784;27;94883;-73
2023/06/07 05:35:31;;;;;;;24.67;7.05;;;;;;;;;;5037126;28;92369;-73
2023/06/07 05:37:58;;;;;;;19.25;7.32;;;;;;;;;;5037320;28;94400;-73
2023/06/07 05:40:24;;;;;;;29.58;8.65;;;;;;;;;;5036542;27;93910;-73
2023/06/07 05:42:51;;;;;;;24.17;7.38;;;;;;;;;;5036965;28;92408;-73
2023/06/07 05:45:17;;;;;;;20.55;7.43;;;;;;;;;;5035275;28;94965;-73
2023/06/07 05:47:47;;;;;;;23.38;7.50;;;;;;;;;;5039803;27;94557;-73
2023/06/07 05:50:14;;;;;;;28.45;8.18;;;;;;;;;;5036819;28;94327;-73
2023/06/07 05:52:41;;;;;;;27.23;7.40;;;;;;;;;;5036638;27;94883;-73
2023/06/07 05:55:10;;;;;;;25.45;7.72;;;;;;;;;;5019206;28;92371;-72
2023/06/07 05:57:37;;;;;;;28.95;7.43;;;;;;;;;;5036821;28;94220;-73
2023/06/07 06:00:13;;;;;;;17.63;6.80;;;;;;;;;;5036313;27;94648;-73
2023/06/07 06:02:41;;;;;;;28.95;7.68;;;;;;;;;;5037022;27;91774;-74
2023/06/07 06:05:08;;;;;;;29.55;7.85;;;;;;;;;;5036498;27;93046;-73
2023/06/07 06:07:35;;;;;;;16.15;6.60;;;;;;;;;;5039552;27;94365;-73
2023/06/07 06:10:02;;;;;;;21.50;7.25;;;;;;;;;;5035033;27;94844;-73
2023/06/07 06:12:30;;;;;;;20.02;6.40;;;;;;;;;;5036129;27;94588;-73
2023/06/07 06:14:56;;;;;;;20.55;6.88;;;;;;;;;;5036438;27;92421;-73
2023/06/07 06:17:23;;;;;;;26.30;6.55;;;;;;;;;;5036138;27;94540;-73
2023/06/07 06:19:49;;;;;;;28.60;6.88;;;;;;;;;;5036555;28;93700;-72
2023/06/07 06:22:16;;;;;;;21.55;5.53;;;;;;;;;;5036260;28;92489;-73
2023/06/07 06:24:42;;;;;;;31.00;6.25;;;;;;;;;;5036119;27;94331;-73
2023/06/07 06:27:09;;;;;;;19.35;6.15;;;;;;;;;;5036555;27;94524;-73
2023/06/07 06:29:35;;;;;;;23.98;6.22;;;;;;;;;;5039589;28;92398;-73
2023/06/07 06:32:02;;;;;;;15.30;5.88;;;;;;;;;;5035748;27;94329;-73
2023/06/07 06:34:29;;;;;;;15.73;4.50;;;;;;;;;;5034377;27;94811;-73
2023/06/07 06:36:57;;;;;;;15.75;5.10;;;;;;;;;;5035895;27;95925;-73
2023/06/07 06:39:24;;;;;;;21.23;5.68;;;;;;;;;;5035800;27;94546;-73
2023/06/07 06:41:51;;;;;;;27.30;6.05;;;;;;;;;;5036030;27;92488;-73
2023/06/07 06:44:18;;;;;;;18.73;5.30;;;;;;;;;;5035384;27;94547;-73
2023/06/07 06:46:44;;;;;;;22.38;5.35;;;;;;;;;;5035450;28;94473;-73
2023/06/07 06:49:11;;;;;;;22.58;6.20;;;;;;;;;;5035819;27;92459;-74
2023/06/07 06:51:39;;;;;;;21.90;5.85;;;;;;;;;;5039183;27;94216;-73
2023/06/07 06:54:09;;;;;;;;;;;;;;;;;;5035999;28;92421;-73
2023/06/07 06:56:37;;;;;;;22.98;6.15;;;;;;;;;;5037016;28;121865;-73
2023/06/07 06:59:03;;;;;;;16.45;5.60;;;;;;;;;;5033448;28;97353;-73
2023/06/07 07:01:46;;;;;;;12.02;5.07;;;;;;;;;;5035768;28;92820;-73
2023/06/07 07:04:15;;;;;;;22.02;6.30;;;;;;;;;;5035840;27;93034;-73
2023/06/07 07:06:42;;;;;;;17.92;5.57;;;;;;;;;;5035291;28;94685;-74
2023/06/07 07:09:09;;;;;;;18.73;5.28;;;;;;;;;;5035758;28;92398;-73
2023/06/07 07:11:39;;;;;;;19.58;5.57;;;;;;;;;;5034137;27;94842;-74
2023/06/07 07:14:05;;;;;;;22.40;5.50;;;;;;;;;;5038549;27;94447;-73
2023/06/07 07:16:32;;;;;;;17.63;5.30;;;;;;;;;;5035470;27;94411;-74
2023/06/07 07:19:03;;;;;;;18.25;5.30;;;;;;;;;;5035300;27;97693;-74
2023/06/07 07:21:31;;;;;;;26.35;5.40;;;;;;;;;;5034978;27;92474;-74
2023/06/07 07:23:59;;;;;;;19.15;5.72;;;;;;;;;;5032810;27;94813;-74
2023/06/07 07:26:26;;;;;;;20.15;5.22;;;;;;;;;;5035046;28;94756;-74
2023/06/07 07:28:53;;;;;;;18.23;4.82;;;;;;;;;;5035405;28;92403;-73
2023/06/07 07:31:21;;;;;;;22.23;4.97;;;;;;;;;;5033831;27;94666;-74
2023/06/07 07:33:47;;;;;;;20.58;5.75;;;;;;;;;;5034922;28;95060;-74
2023/06/07 07:36:15;;;;;;;17.35;5.15;;;;;;;;;;5037973;28;92732;-75
2023/06/07 07:38:45;;;;;;;21.55;4.88;;;;;;;;;;5034625;28;94525;-74
2023/06/07 07:41:12;;;;;;;16.60;5.32;;;;;;;;;;5017619;28;91795;-74
2023/06/07 07:43:38;;;;;;;14.75;4.93;;;;;;;;;;5034972;27;93561;-74
2023/06/07 07:46:05;;;;;;;12.38;5.18;;;;;;;;;;5034395;28;95014;-74
2023/06/07 07:48:32;;;;;;;17.98;5.00;;;;;;;;;;5033281;27;94835;-74
2023/06/07 07:50:59;;;;;;;20.45;5.32;;;;;;;;;;5034762;28;97672;-74
2023/06/07 07:53:26;;;;;;;16.60;5.93;;;;;;;;;;5034339;28;94411;-74
2023/06/07 07:55:52;;;;;;;17.48;5.90;;;;;;;;;;5034715;28;92396;-74
2023/06/07 07:58:18;;;;;;;15.93;4.90;;;;;;;;;;5037623;27;94823;-74
2023/06/07 08:00:45;;;;;;;19.65;5.50;;;;;;;;;;5034779;28;92566;-74
2023/06/07 08:03:12;;;;;;;17.02;5.65;;;;;;;;;;5034748;27;94315;-74
2023/06/07 08:05:39;;;;;;;26.92;6.22;;;;;;;;;;5034876;27;93873;-74
2023/06/07 08:08:06;;;;;;;18.98;6.10;;;;;;;;;;5034675;28;92482;-74
2023/06/07 08:10:34;;;;;;;21.35;5.63;;;;;;;;;;5034673;27;94428;-74
2023/06/07 08:13:00;;;;;;;18.77;6.15;;;;;;;;;;5032648;28;97290;-74
2023/06/07 08:15:27;;;;;;;20.30;5.75;;;;;;;;;;5034419;27;92785;-74
2023/06/07 08:17:53;;;;;;;13.25;5.13;;;;;;;;;;5037433;27;94718;-74
2023/06/07 08:20:20;;;;;;;25.75;6.15;;;;;;;;;;5016601;27;92770;-74
2023/06/07 08:22:50;;;;;;;23.17;6.25;;;;;;;;;;5034749;28;94236;-74
2023/06/07 08:25:16;;;;;;;20.85;6.85;;;;;;;;;;5033585;27;95088;-74
2023/06/07 08:27:43;;;;;;;21.13;6.00;;;;;;;;;;5034665;28;92778;-74
2023/06/07 08:30:09;;;;;;;15.82;4.60;;;;;;;;;;5034554;28;94347;-74
2023/06/07 08:32:36;;;;;;;24.63;5.53;;;;;;;;;;5034294;27;95039;-74
2023/06/07 08:35:03;;;;;;;11.80;4.55;;;;;;;;;;5034191;27;92447;-74
2023/06/07 08:37:29;;;;;;;16.70;5.45;;;;;;;;;;5034886;27;94732;-74
2023/06/07 08:39:56;;;;;;;20.75;5.32;;;;;;;;;;5041051;27;94507;-74
2023/06/07 08:42:22;;;;;;;12.77;4.78;;;;;;;;;;5037753;27;94346;-74
2023/06/07 08:44:49;;;;;;;12.50;5.00;;;;;;;;;;5019529;28;94561;-74
2023/06/07 08:47:16;;;;;;;22.73;5.50;;;;;;;;;;5037443;28;92435;-75
2023/06/07 08:49:43;;;;;;;20.75;5.88;;;;;;;;;;5037809;27;94239;-75
2023/06/07 08:52:10;;;;;;;19.48;5.45;;;;;;;;;;5037345;28;94696;-74
2023/06/07 08:54:42;;;;;;;14.85;5.00;;;;;;;;;;5038243;28;91631;-74
2023/06/07 08:57:09;;;;;;;24.95;5.25;;;;;;;;;;5037583;27;93840;-75
2023/06/07 08:59:37;;;;;;;18.35;5.63;;;;;;;;;;5019610;28;94885;-75
2023/06/07 09:02:04;;;;;;;18.30;5.45;;;;;;;;;;5038664;27;94830;-74
2023/06/07 09:04:31;;;;;;;23.30;5.82;;;;;;;;;;5037505;28;94464;-74
2023/06/07 09:07:00;;;;;;;19.90;5.88;;;;;;;;;;5037605;28;92377;-74
2023/06/07 09:09:26;;;;;;;22.52;5.68;;;;;;;;;;5019685;28;94530;-74
2023/06/07 09:11:53;;;;;;;27.42;6.43;;;;;;;;;;5037135;28;94871;-74
2023/06/07 09:14:21;;;;;;;22.85;5.90;;;;;;;;;;5037451;28;92458;-76
2023/06/07 09:16:52;;;;;;;18.23;5.65;;;;;;;;;;5037154;27;94344;-75
2023/06/07 09:19:29;;;;;;;18.90;5.05;;;;;;;;;;5037485;28;93409;-75
2023/06/07 09:21:56;;;;;;;13.57;5.03;;;;;;;;;;5037203;28;92489;-74
2023/06/07 09:24:26;;;;;;;19.45;5.20;;;;;;;;;;5039477;27;93590;-74
2023/06/07 09:26:52;;;;;;;;;;;;;;;;;;5034539;27;94912;-75
2023/06/07 09:29:19;;;;;;;26.08;6.05;;;;;;;;;;5037633;27;127017;-75
2023/06/07 09:31:47;;;;;;;16.80;5.13;;;;;;;;;;5036855;27;93358;-74
2023/06/07 09:34:18;;;;;;;16.35;5.68;;;;;;;;;;5036978;27;92833;-75
2023/06/07 09:37:02;;;;;;;14.77;5.13;;;;;;;;;;5037247;27;95086;-74
2023/06/07 09:39:29;;;;;;;25.38;5.20;;;;;;;;;;5036483;27;94383;-75
2023/06/07 09:41:56;;;;;;;25.48;5.65;;;;;;;;;;5036852;27;92437;-75
2023/06/07 09:44:25;;;;;;;20.58;5.38;;;;;;;;;;5037375;28;94784;-74
2023/06/07 09:46:51;;;;;;;16.95;5.38;;;;;;;;;;5039266;27;94427;-75
2023/06/07 09:49:29;;;;;;;14.02;6.05;;;;;;;;;;5018801;28;94944;-74
2023/06/07 09:51:55;;;;;;;25.35;5.95;;;;;;;;;;5034888;28;97192;-74
2023/06/07 09:54:36;;;;;;;21.92;5.97;;;;;;;;;;5036684;27;92524;-75
2023/06/07 09:57:23;;;;;;;15.82;5.93;;;;;;;;;;5036780;28;94233;-75
2023/06/07 09:59:58;;;;;;;15.00;5.65;;;;;;;;;;5035587;28;94485;-74
2023/06/07 10:02:28;;;;;;;22.45;5.72;;;;;;;;;;5036497;28;92573;-74
2023/06/07 10:04:56;;;;;;;20.00;6.00;;;;;;;;;;5036530;27;94145;-74
2023/06/07 10:07:24;;;;;;;;;;;;;;;;;;5036997;27;94683;-74
2023/06/07 10:09:52;;;;;;;18.40;5.50;;;;;;;;;;5022296;28;91691;-74
2023/06/07 10:12:20;;;;;;;16.40;5.72;;;;;;;;;;5035955;27;94781;-74
2023/06/07 10:14:47;;;;;;;16.50;5.90;;;;;;;;;;5036465;28;92445;-74
2023/06/07 10:17:15;;;;;;;18.55;6.63;;;;;;;;;;5016657;28;94868;-75
2023/06/07 10:19:47;;;;;;;23.10;6.20;;;;;;;;;;5036218;27;94462;-74
2023/06/07 10:22:17;;;;;;;19.85;6.00;;;;;;;;;;5036026;27;92456;-75
2023/06/07 10:24:43;;;;;;;17.67;6.50;;;;;;;;;;5017962;28;95062;-74
2023/06/07 10:27:12;;;;;;;15.77;5.60;;;;;;;;;;5018171;28;94377;-74
2023/06/07 10:29:39;;;;;;;17.40;6.10;;;;;;;;;;5039353;27;92444;-74
2023/06/07 10:32:25;;;;;;;21.70;5.45;;;;;;;;;;5035990;27;94548;-74
2023/06/07 10:34:54;;;;;;;23.52;6.10;;;;;;;;;;5036729;28;91647;-74
2023/06/07 10:37:21;;;;;;;19.63;6.68;;;;;;;;;;5036174;28;93495;-74
2023/06/07 10:39:49;;;;;;;17.23;6.07;;;;;;;;;;5035694;28;93374;-75
2023/06/07 10:42:16;;;;;;;15.52;5.47;;;;;;;;;;5034466;27;95280;-74
2023/06/07 10:44:43;;;;;;;21.50;6.40;;;;;;;;;;5035695;28;97029;-75
2023/06/07 10:47:21;;;;;;;12.75;4.95;;;;;;;;;;5035772;28;94500;-74
2023/06/07 10:49:49;;;;;;;22.20;5.95;;;;;;;;;;5018206;28;92491;-74
2023/06/07 10:52:15;;;;;;;19.42;5.45;;;;;;;;;;5039025;27;94559;-75
2023/06/07 10:54:43;;;;;;;15.98;5.38;;;;;;;;;;5035852;28;92421;-74
2023/06/07 10:57:09;;;;;;;17.30;5.93;;;;;;;;;;5035914;27;92780;-74
2023/06/07 10:59:36;;;;;;;14.80;5.10;;;;;;;;;;5034964;27;94169;-75
2023/06/07 11:02:36;;;;;;;16.50;5.80;;;;;;;;;;5035539;27;92470;-74
2023/06/07 11:05:03;;;;;;;13.90;4.82;;;;;;;;;;4980835;28;94629;-74
2023/06/07 11:07:30;;;;;;;14.80;5.28;;;;;;;;;;5033866;28;97256;-74
2023/06/07 11:10:02;;;;;;;18.92;5.68;;;;;;;;;;5035923;27;92382;-74
2023/06/07 11:12:36;;;;;;;18.92;5.40;;;;;;;;;;5035703;27;94270;-75
2023/06/07 11:15:40;;;;;;;17.90;6.10;;;;;;;;;;5038401;28;94406;-74
2023/06/07 11:18:07;;;;;;;16.70;5.10;;;;;;;;;;5035080;27;95664;-75
2023/06/07 11:20:40;;;;;;;23.67;5.68;;;;;;;;;;5035134;27;94544;-75
2023/06/07 11:23:23;;;;;;;22.48;6.13;;;;;;;;;;5035419;27;92430;-74
2023/06/07 11:25:57;;;;;;;15.82;4.97;;;;;;;;;;5033863;28;94528;-75
2023/06/07 11:28:26;;;;;;;16.42;5.45;;;;;;;;;;5017173;28;94511;-75
2023/06/07 11:30:54;;;;;;;14.77;5.32;;;;;;;;;;5035265;28;92463;-75
2023/06/07 11:33:21;;;;;;;18.45;5.38;;;;;;;;;;5033837;28;94798;-75
2023/06/07 11:35:48;;;;;;;14.82;4.97;;;;;;;;;;5034849;28;94806;-75
2023/06/07 11:38:16;;;;;;;20.98;5.90;;;;;;;;;;5038488;28;92630;-75
2023/06/07 11:40:43;;;;;;;27.50;5.78;;;;;;;;;;5034831;28;94638;-75
2023/06/07 11:43:11;;;;;;;15.13;5.72;;;;;;;;;;5017397;28;92978;-75
2023/06/07 11:45:41;;;;;;;12.90;5.55;;;;;;;;;;5034710;28;94300;-75
2023/06/07 11:48:08;;;;;;;21.73;6.18;;;;;;;;;;5034759;28;94575;-75
2023/06/07 11:50:39;;;;;;;14.50;5.07;;;;;;;;;;5035429;28;91976;-75
2023/06/07 11:53:09;;;;;;;15.48;5.80;;;;;;;;;;5035026;28;93500;-75
2023/06/07 11:55:39;;;;;;;13.25;5.20;;;;;;;;;;5017235;28;94649;-75
2023/06/07 11:58:05;;;;;;;18.42;5.68;;;;;;;;;;5033174;28;94805;-75
2023/06/07 12:00:33;;;;;;;11.27;4.47;;;;;;;;;;5037570;28;95952;-75
2023/06/07 12:03:00;;;;;;;18.55;5.20;;;;;;;;;;5016835;28;92660;-75
2023/06/07 12:05:30;;;;;;;16.85;4.47;;;;;;;;;;5034637;27;94267;-75
2023/06/07 12:08:01;;;;;;;15.37;5.53;;;;;;;;;;5034420;27;95008;-75
2023/06/07 12:10:27;;;;;;;17.80;5.45;;;;;;;;;;5034432;28;92445;-75
2023/06/07 12:13:03;;;;;;;12.43;4.55;;;;;;;;;;5034575;27;94170;-75
2023/06/07 12:15:30;;;;;;;15.23;5.15;;;;;;;;;;5034992;28;92345;-75
2023/06/07 12:17:57;;;;;;;18.85;5.43;;;;;;;;;;5034615;27;92465;-75
2023/06/07 12:20:25;;;;;;;18.20;5.75;;;;;;;;;;5037331;27;94209;-75
2023/06/07 12:22:52;;;;;;;17.02;4.90;;;;;;;;;;5033014;27;94803;-75
2023/06/07 12:25:20;;;;;;;16.60;5.28;;;;;;;;;;5033986;28;96333;-75
2023/06/07 12:27:47;;;;;;;15.68;4.88;;;;;;;;;;5034312;28;94431;-75
2023/06/07 12:30:13;;;;;;;12.13;4.80;;;;;;;;;;5034001;27;92447;-75
2023/06/07 12:32:40;;;;;;;14.63;4.85;;;;;;;;;;5034544;28;94197;-75
2023/06/07 12:35:10;;;;;;;14.95;5.50;;;;;;;;;;5016341;28;94742;-75
2023/06/07 12:37:37;;;;;;;10.65;4.78;;;;;;;;;;5016807;28;92695;-75
2023/06/07 12:40:05;;;;;;;12.82;4.80;;;;;;;;;;5034835;28;94735;-75
2023/06/07 12:42:34;;;;;;;16.45;4.55;;;;;;;;;;5016979;28;94347;-75
2023/06/07 12:45:01;;;;;;;14.48;4.47;;;;;;;;;;5013782;28;94907;-75
2023/06/07 12:47:30;;;;;;;13.13;4.18;;;;;;;;;;5024991;28;96908;-75
2023/06/07 12:49:58;;;;;;;9.95;3.85;;;;;;;;;;5016377;28;92898;-75
2023/06/07 12:52:25;;;;;;;6.18;3.72;;;;;;;;;;5016448;28;94618;-75
2023/06/07 12:54:53;;;;;;;15.52;4.95;;;;;;;;;;5033822;27;94510;-75
2023/06/07 12:57:20;;;;;;;19.23;4.88;;;;;;;;;;5015419;28;92550;-76
2023/06/07 12:59:47;;;;;;;13.40;4.70;;;;;;;;;;5016174;28;94378;-75
2023/06/07 13:02:14;;;;;;;14.27;4.50;;;;;;;;;;5033656;27;95163;-75
2023/06/07 13:04:40;;;;;;;14.07;3.80;;;;;;;;;;5037717;28;91754;-76
2023/06/07 13:07:09;;;;;;;18.05;4.32;;;;;;;;;;5033778;28;94923;-76
2023/06/07 13:09:36;;;;;;;12.60;4.70;;;;;;;;;;5034146;28;92725;-75
2023/06/07 13:12:05;;;;;;;17.88;4.57;;;;;;;;;;5014524;28;95178;-75
2023/06/07 13:14:32;;;;;;;10.30;4.43;;;;;;;;;;5016007;28;94497;-76
2023/06/07 13:16:58;;;;;;;11.75;4.15;;;;;;;;;;5033868;28;92417;-74
2023/06/07 13:19:25;;;;;;;17.35;4.60;;;;;;;;;;5033740;28;94407;-75
2023/06/07 13:21:53;;;;;;;5.95;3.80;;;;;;;;;;5033676;27;95180;-75
2023/06/07 13:24:20;;;;;;;12.70;4.25;;;;;;;;;;5036477;28;92520;-75
2023/06/07 13:26:46;;;;;;;14.32;4.32;;;;;;;;;;5040531;27;93501;-75
2023/06/07 13:29:13;;;;;;;9.23;4.30;;;;;;;;;;5019926;28;92236;-76
2023/06/07 13:31:39;;;;;;;13.73;4.57;;;;;;;;;;5034684;28;92675;-76
2023/06/07 13:34:07;;;;;;;16.25;4.32;;;;;;;;;;5036863;27;95120;-75
2023/06/07 13:36:34;;;;;;;14.80;4.07;;;;;;;;;;5035048;28;94860;-76
2023/06/07 13:39:00;;;;;;;12.02;4.32;;;;;;;;;;5036683;27;97137;-76
2023/06/07 13:41:27;;;;;;;9.95;4.22;;;;;;;;;;5036742;28;94161;-76
2023/06/07 13:44:03;;;;;;;11.98;3.83;;;;;;;;;;5036616;28;92391;-77
2023/06/07 13:46:44;;;;;;;13.10;4.47;;;;;;;;;;5036940;28;95046;-75
2023/06/07 13:49:11;;;;;;;9.40;3.85;;;;;;;;;;5039646;27;93300;-76
2023/06/07 13:51:38;;;;;;;14.18;4.45;;;;;;;;;;5036648;28;94590;-75
2023/06/07 13:54:05;;;;;;;12.35;4.63;;;;;;;;;;5037041;27;93912;-75
2023/06/07 13:56:32;;;;;;;15.68;4.10;;;;;;;;;;5036781;28;92494;-75
2023/06/07 13:58:59;;;;;;;10.80;4.43;;;;;;;;;;5019045;28;94946;-75
2023/06/07 14:01:26;;;;;;;16.95;5.07;;;;;;;;;;5034789;27;96827;-75
2023/06/07 14:03:54;;;;;;;14.10;4.60;;;;;;;;;;5036926;27;92464;-76
2023/06/07 14:06:22;;;;;;;17.02;4.30;;;;;;;;;;5036687;27;94334;-76
2023/06/07 14:08:49;;;;;;;15.00;4.72;;;;;;;;;;5036611;27;93604;-76
2023/06/07 14:11:18;;;;;;;11.32;4.03;;;;;;;;;;5039805;27;92553;-76
2023/06/07 14:13:44;;;;;;;19.13;5.45;;;;;;;;;;5036370;28;94554;-76
2023/06/07 14:16:12;;;;;;;13.15;5.18;;;;;;;;;;5018495;28;92512;-76
2023/06/07 14:18:38;;;;;;;14.52;4.95;;;;;;;;;;5037036;28;94590;-75
2023/06/07 14:21:05;;;;;;;9.30;4.15;;;;;;;;;;5018171;28;95003;-76
2023/06/07 14:23:32;;;;;;;14.27;5.25;;;;;;;;;;5036353;27;92473;-76
2023/06/07 14:25:59;;;;;;;10.73;4.35;;;;;;;;;;5016424;28;94874;-76
2023/06/07 14:28:26;;;;;;;26.45;6.00;;;;;;;;;;5036262;27;95507;-76
2023/06/07 14:30:53;;;;;;;19.25;4.43;;;;;;;;;;5039365;27;92453;-76
2023/06/07 14:33:20;;;;;;;15.63;4.82;;;;;;;;;;5035392;27;95068;-76
2023/06/07 14:35:46;;;;;;;12.68;4.82;;;;;;;;;;5036188;28;92397;-77
2023/06/07 14:38:13;;;;;;;17.98;4.78;;;;;;;;;;5018025;28;93717;-75